Terminal Aerodrome Forecast
Issued by NWS North Platte, NE

Home | Current Version | Previous Version | Text Only | Print | Product List | Glossary On
Versions: 1 2 3 4 5 6 7 8 9 10 11 12 13 14 15 16 17 18
000
FTUS43 KLBF 240520
TAFLBF
TAF
KLBF 240520Z 2406/2506 VRB06KT P6SM SCT250
     FM241200 01007KT P6SM BKN150
     FM241700 02012KT P6SM SCT120 BKN150
     FM242100 03012KT P6SM BKN120
     FM250200 36007KT P6SM SCT120 BKN150=

USA.gov is the U.S. government's official web portal to all federal, state and local government web resources and services.